Brooklyn Heights, Ohio
Current Conditions -  °F | °C
As of 8:15 PM on Thursday 27 Nov 2014 (Local Time) from KBKL Reporting Station
Overcast Overcast  
Wind Chill: 22°   Ceiling: 3300
Heat Index: 33°   Visibility: 9mi
Dew Point: 26°   Wind: 17mph
Humidity: 75%   Direction: 300°WNW
Pressure: 30.21"   Gusts: NA
Location:  41.4454°N, 81.697°W
Report Text: KBKL 280115Z 30015KT 9SM SCT014 BKN033 OVC055 01/M03 A3021 RMK AO2 SNE13 P0000 T00061033
Loading
Personal Weather Stations






























Interactive Weather Map New forecast layout! Learn more

10-Day Weather Forecast

Advertisements
Track Severe Weather on mobile